createdAt,value
2022-10-05T00:01:23.671Z,9.53
2022-10-05T00:03:59.161Z,9.54
2022-10-05T00:06:31.342Z,9.54
2022-10-05T00:09:10.758Z,9.53
2022-10-05T00:11:41.371Z,9.54
2022-10-05T00:14:19.687Z,9.55
2022-10-05T00:16:51.375Z,9.54
2022-10-05T00:19:28.171Z,9.51
2022-10-05T00:22:07.337Z,9.50
2022-10-05T00:24:45.894Z,9.46
2022-10-05T00:27:18.637Z,9.41
2022-10-05T00:29:50.461Z,9.35
2022-10-05T00:32:21.052Z,9.32
2022-10-05T00:34:54.543Z,9.26
2022-10-05T00:37:25.202Z,9.22
2022-10-05T00:39:56.173Z,9.18
2022-10-05T00:42:42.420Z,9.11
2022-10-05T00:45:17.475Z,9.05
2022-10-05T00:48:02.501Z,8.99
2022-10-05T00:50:50.619Z,8.99
2022-10-05T00:53:36.003Z,8.96
2022-10-05T00:56:16.545Z,8.91
2022-10-05T00:59:05.668Z,8.87
2022-10-05T01:01:42.606Z,8.85
2022-10-05T01:04:22.069Z,8.83
2022-10-05T01:07:05.486Z,8.79
2022-10-05T01:09:51.881Z,8.74
2022-10-05T01:12:39.499Z,8.66
2022-10-05T01:15:37.859Z,8.60
2022-10-05T01:18:15.871Z,8.57
2022-10-05T01:20:59.336Z,8.55
2022-10-05T01:24:01.655Z,8.57
2022-10-05T01:26:59.212Z,8.62
2022-10-05T01:29:36.879Z,8.64
2022-10-05T01:32:17.772Z,8.64
2022-10-05T01:34:54.798Z,8.66
2022-10-05T01:37:30.437Z,8.66
2022-10-05T01:40:14.256Z,8.65
2022-10-05T01:42:58.127Z,8.66
2022-10-05T01:45:40.758Z,8.68
2022-10-05T01:48:24.012Z,8.68
2022-10-05T01:51:04.943Z,8.71
2022-10-05T01:53:47.689Z,8.73
2022-10-05T01:56:26.528Z,8.74
2022-10-05T01:59:08.441Z,8.75
2022-10-05T02:01:50.009Z,8.76
2022-10-05T02:04:56.962Z,8.77
2022-10-05T02:07:35.339Z,8.79
2022-10-05T02:10:11.964Z,8.79
2022-10-05T02:12:48.084Z,8.78
2022-10-05T02:15:25.466Z,8.77
2022-10-05T02:18:04.673Z,8.75
2022-10-05T02:20:38.642Z,8.72
2022-10-05T02:23:14.950Z,8.68
2022-10-05T02:26:09.895Z,8.63
2022-10-05T02:28:52.911Z,8.61
2022-10-05T02:31:31.725Z,8.58
2022-10-05T02:34:26.400Z,8.54
2022-10-05T02:37:27.900Z,8.53
2022-10-05T02:40:23.138Z,8.53
2022-10-05T02:43:02.601Z,8.54
2022-10-05T02:45:43.827Z,8.57
2022-10-05T02:48:23.596Z,8.60
2022-10-05T02:51:03.807Z,8.62
2022-10-05T02:53:43.514Z,8.63
2022-10-05T02:56:26.116Z,8.62
2022-10-05T02:59:08.212Z,8.60
2022-10-05T03:01:47.959Z,8.61
2022-10-05T03:04:27.869Z,8.61
2022-10-05T03:07:15.706Z,8.60
2022-10-05T03:10:00.778Z,8.58
2022-10-05T03:12:49.409Z,8.54
2022-10-05T03:15:59.937Z,8.51
2022-10-05T03:18:44.878Z,8.48
2022-10-05T03:21:48.032Z,8.49
2022-10-05T03:24:43.178Z,8.55
2022-10-05T03:27:26.447Z,8.64
2022-10-05T03:30:04.416Z,8.65
2022-10-05T03:32:45.502Z,8.73
2022-10-05T03:35:23.562Z,8.96
2022-10-05T03:38:06.504Z,9.18
2022-10-05T03:40:41.012Z,9.36
2022-10-05T03:43:38.197Z,9.48
2022-10-05T03:46:14.941Z,9.55
2022-10-05T03:48:53.034Z,9.53
2022-10-05T03:51:30.897Z,9.47
2022-10-05T03:54:10.139Z,9.40
2022-10-05T03:56:47.267Z,9.34
2022-10-05T03:59:22.081Z,9.25
2022-10-05T04:01:56.240Z,9.18
2022-10-05T04:04:34.080Z,9.09
2022-10-05T04:07:06.263Z,9.02
2022-10-05T04:09:41.726Z,8.95
2022-10-05T04:12:26.404Z,8.88
2022-10-05T04:15:01.608Z,8.82
2022-10-05T04:17:36.537Z,8.74
2022-10-05T04:20:16.450Z,8.68
2022-10-05T04:22:55.483Z,8.61
2022-10-05T04:25:37.132Z,8.54
2022-10-05T04:28:17.116Z,8.48
2022-10-05T04:30:55.490Z,8.43
2022-10-05T04:33:28.347Z,8.40
2022-10-05T04:36:20.690Z,8.38
2022-10-05T04:39:03.875Z,8.35
2022-10-05T04:41:51.830Z,8.32
2022-10-05T04:44:49.110Z,8.30
2022-10-05T04:47:37.122Z,8.31
2022-10-05T04:50:24.838Z,8.30
2022-10-05T04:53:18.057Z,8.30
2022-10-05T04:56:07.088Z,8.28
2022-10-05T04:58:57.654Z,8.26
2022-10-05T05:01:49.272Z,8.21
2022-10-05T05:04:42.132Z,8.16
2022-10-05T05:07:34.961Z,8.14
2022-10-05T05:10:31.012Z,8.14
2022-10-05T05:13:19.626Z,8.12
2022-10-05T05:16:05.733Z,8.09
2022-10-05T05:19:16.502Z,8.06
2022-10-05T05:22:01.401Z,8.02
2022-10-05T05:24:47.396Z,7.98
2022-10-05T05:27:40.968Z,7.93
2022-10-05T05:30:37.596Z,7.89
2022-10-05T05:33:18.105Z,7.86
2022-10-05T05:36:23.077Z,7.83
2022-10-05T05:39:19.355Z,7.81
2022-10-05T05:42:00.206Z,7.78
2022-10-05T05:44:38.967Z,7.76
2022-10-05T05:47:21.674Z,7.73
2022-10-05T05:50:11.770Z,7.71
2022-10-05T05:52:48.984Z,7.69
2022-10-05T05:55:33.761Z,7.66
2022-10-05T05:58:19.484Z,7.66
2022-10-05T06:00:56.278Z,7.64
2022-10-05T06:03:32.507Z,7.65
2022-10-05T06:06:06.924Z,7.67
2022-10-05T06:08:45.079Z,7.69
2022-10-05T06:11:52.481Z,7.70
2022-10-05T06:14:28.846Z,7.71
2022-10-05T06:17:06.537Z,7.72
2022-10-05T06:19:40.499Z,7.74
2022-10-05T06:22:22.264Z,7.76
2022-10-05T06:25:07.851Z,7.78
2022-10-05T06:27:41.926Z,7.81
2022-10-05T06:30:16.831Z,7.88
2022-10-05T06:33:12.906Z,7.97
2022-10-05T06:36:11.985Z,8.06
2022-10-05T06:39:06.738Z,8.12
2022-10-05T06:41:50.591Z,8.15
2022-10-05T06:44:27.796Z,8.19
2022-10-05T06:47:16.574Z,8.21
2022-10-05T06:50:28.495Z,8.27
2022-10-05T06:53:35.044Z,8.31
2022-10-05T06:56:15.152Z,8.36
2022-10-05T06:58:55.893Z,8.42
2022-10-05T07:01:39.185Z,8.48
2022-10-05T07:04:25.559Z,8.55
2022-10-05T07:07:02.569Z,8.63
2022-10-05T07:09:49.138Z,8.73
2022-10-05T07:12:34.600Z,8.88
2022-10-05T07:15:21.713Z,9.03
2022-10-05T07:18:05.127Z,9.24
2022-10-05T07:20:49.203Z,9.44
2022-10-05T07:23:36.297Z,9.63
2022-10-05T07:26:11.408Z,9.81
2022-10-05T07:28:48.964Z,10.02
2022-10-05T07:31:29.577Z,10.23
2022-10-05T07:34:07.690Z,10.47
2022-10-05T07:37:02.448Z,10.71
2022-10-05T07:39:59.565Z,10.99
2022-10-05T07:42:51.832Z,11.29
2022-10-05T07:45:33.743Z,11.60
2022-10-05T07:48:14.477Z,11.96
2022-10-05T07:50:59.742Z,12.31
2022-10-05T07:53:36.679Z,12.66
2022-10-05T07:56:15.909Z,12.95
2022-10-05T07:58:52.806Z,13.20
2022-10-05T08:01:29.782Z,13.41
2022-10-05T08:04:09.400Z,13.59
2022-10-05T08:06:50.057Z,13.77
2022-10-05T08:09:38.212Z,13.91
2022-10-05T08:12:20.883Z,14.03
2022-10-05T08:14:57.687Z,14.13
2022-10-05T08:17:38.995Z,14.16
2022-10-05T08:20:25.377Z,14.19
2022-10-05T08:23:02.243Z,14.25
2022-10-05T08:25:49.894Z,14.30
2022-10-05T08:28:26.718Z,14.37
2022-10-05T08:31:05.137Z,14.46
2022-10-05T08:33:43.087Z,14.55
2022-10-05T08:36:16.790Z,14.64
2022-10-05T08:38:55.266Z,14.73
2022-10-05T08:41:59.648Z,14.79
2022-10-05T08:44:51.022Z,14.87
2022-10-05T08:47:38.954Z,14.94
2022-10-05T08:50:32.331Z,15.03
2022-10-05T08:53:27.308Z,15.12
2022-10-05T08:56:28.631Z,15.22
2022-10-05T08:59:14.945Z,15.29
2022-10-05T09:02:07.126Z,15.36
2022-10-05T09:05:02.595Z,15.46
2022-10-05T09:07:53.452Z,15.66
2022-10-05T09:11:04.776Z,15.71
2022-10-05T09:14:19.071Z,15.65
2022-10-05T09:17:15.058Z,15.65
2022-10-05T09:20:00.942Z,15.71
2022-10-05T09:22:46.043Z,15.76
2022-10-05T09:25:29.285Z,15.80
2022-10-05T09:28:10.913Z,15.83
2022-10-05T09:30:54.172Z,15.81
2022-10-05T09:33:55.478Z,15.85
2022-10-05T09:37:00.910Z,15.93
2022-10-05T09:39:59.076Z,15.98
2022-10-05T09:42:44.808Z,16.03
2022-10-05T09:45:48.056Z,16.05
2022-10-05T09:49:02.575Z,16.08
2022-10-05T09:52:00.412Z,16.12
2022-10-05T09:55:16.068Z,16.20
2022-10-05T09:58:34.640Z,16.26
2022-10-05T10:01:33.507Z,16.30
2022-10-05T10:04:30.457Z,16.35
2022-10-05T10:07:24.570Z,16.41
2022-10-05T10:10:29.350Z,16.48
2022-10-05T10:13:20.647Z,16.56
2022-10-05T10:16:05.671Z,16.66
2022-10-05T10:18:53.145Z,16.72
2022-10-05T10:21:43.309Z,16.77
2022-10-05T10:24:23.772Z,16.85
2022-10-05T10:27:07.762Z,16.92
2022-10-05T10:30:16.831Z,16.97
2022-10-05T10:33:15.593Z,17.06
2022-10-05T10:35:51.760Z,17.15
2022-10-05T10:38:40.566Z,17.26
2022-10-05T10:41:51.999Z,17.36
2022-10-05T10:44:47.144Z,17.42
2022-10-05T10:47:45.236Z,17.45
2022-10-05T10:50:36.104Z,17.51
2022-10-05T10:53:24.916Z,17.56
2022-10-05T10:56:14.232Z,17.63
2022-10-05T10:59:12.710Z,17.72
2022-10-05T11:02:01.663Z,17.85
2022-10-05T11:04:57.758Z,17.97
2022-10-05T11:07:59.859Z,18.10
2022-10-05T11:11:01.470Z,18.24
2022-10-05T11:13:55.643Z,18.37
2022-10-05T11:16:47.769Z,18.44
2022-10-05T11:19:46.310Z,18.56
2022-10-05T11:22:53.292Z,18.68
2022-10-05T11:25:48.061Z,18.76
2022-10-05T11:29:01.443Z,18.84
2022-10-05T11:32:05.507Z,18.97
2022-10-05T11:35:03.848Z,19.17
2022-10-05T11:38:09.616Z,19.33
2022-10-05T11:41:08.257Z,19.57
2022-10-05T11:44:13.458Z,19.83
2022-10-05T11:46:57.927Z,20.13
2022-10-05T11:49:37.402Z,20.47
2022-10-05T11:52:16.677Z,20.78
2022-10-05T11:55:12.155Z,21.08
2022-10-05T11:57:50.137Z,21.51
2022-10-05T12:00:22.592Z,21.78
2022-10-05T12:03:16.489Z,22.07
2022-10-05T12:05:58.597Z,22.44
2022-10-05T12:08:39.403Z,22.79
2022-10-05T12:11:34.527Z,22.98
2022-10-05T12:14:13.048Z,23.20
2022-10-05T12:16:52.017Z,23.46
2022-10-05T12:19:29.798Z,23.74
2022-10-05T12:22:10.768Z,23.90
2022-10-05T12:25:02.902Z,24.03
2022-10-05T12:27:39.432Z,24.09
2022-10-05T12:30:18.580Z,24.08
2022-10-05T12:33:02.278Z,24.14
2022-10-05T12:35:48.192Z,24.19
2022-10-05T12:38:29.516Z,24.23
2022-10-05T12:41:12.906Z,24.24
2022-10-05T12:43:56.859Z,24.37
2022-10-05T12:46:38.692Z,24.60
2022-10-05T12:49:33.239Z,24.73
2022-10-05T12:52:06.827Z,24.75
2022-10-05T12:54:49.867Z,24.80
2022-10-05T12:57:30.543Z,25.00
2022-10-05T13:00:12.418Z,25.05
2022-10-05T13:02:47.362Z,25.01
2022-10-05T13:05:33.812Z,25.02
2022-10-05T13:08:19.054Z,25.04
2022-10-05T13:10:57.000Z,25.07
2022-10-05T13:13:42.324Z,25.21
2022-10-05T13:16:29.221Z,25.45
2022-10-05T13:19:20.068Z,25.51
2022-10-05T13:22:11.433Z,25.58
2022-10-05T13:24:51.303Z,25.58
2022-10-05T13:27:28.063Z,25.55
2022-10-05T13:30:03.580Z,25.56
2022-10-05T13:32:42.162Z,25.63
2022-10-05T13:35:35.390Z,25.76
2022-10-05T13:38:17.734Z,25.92
2022-10-05T13:40:57.880Z,25.90
2022-10-05T13:43:39.291Z,25.92
2022-10-05T13:46:18.595Z,25.92
2022-10-05T13:49:01.249Z,25.86
2022-10-05T13:51:46.870Z,25.83
2022-10-05T13:54:24.439Z,25.73
2022-10-05T13:56:59.902Z,25.69
2022-10-05T13:59:36.812Z,25.79
2022-10-05T14:02:11.032Z,25.85
2022-10-05T14:04:52.444Z,25.69
2022-10-05T14:07:31.741Z,25.48
2022-10-05T14:10:04.573Z,25.43
2022-10-05T14:12:42.531Z,25.42
2022-10-05T14:15:32.169Z,25.56
2022-10-05T14:18:18.423Z,25.84
2022-10-05T14:21:04.133Z,26.02
2022-10-05T14:23:36.845Z,26.08
2022-10-05T14:26:20.729Z,26.16
2022-10-05T14:29:02.646Z,26.26
2022-10-05T14:31:42.473Z,26.49
2022-10-05T14:34:35.731Z,26.79
2022-10-05T14:37:20.283Z,26.88
2022-10-05T14:39:53.789Z,26.69
2022-10-05T14:42:26.333Z,26.58
2022-10-05T14:45:14.546Z,26.58
2022-10-05T14:47:52.373Z,26.62
2022-10-05T14:50:29.527Z,26.57
2022-10-05T14:53:18.286Z,26.42
2022-10-05T14:56:28.900Z,26.18
2022-10-05T14:59:30.144Z,25.81
2022-10-05T15:02:12.604Z,25.77
2022-10-05T15:04:49.995Z,25.65
2022-10-05T15:07:29.868Z,25.53
2022-10-05T15:10:13.599Z,25.49
2022-10-05T15:12:48.260Z,25.47
2022-10-05T15:15:33.239Z,25.58
2022-10-05T15:18:07.221Z,25.82
2022-10-05T15:20:48.206Z,25.83
2022-10-05T15:23:26.745Z,25.89
2022-10-05T15:26:07.585Z,25.90
2022-10-05T15:28:48.334Z,25.93
2022-10-05T15:31:30.690Z,25.92
2022-10-05T15:34:09.408Z,25.89
2022-10-05T15:36:44.272Z,25.79
2022-10-05T15:39:25.545Z,25.85
2022-10-05T15:42:02.250Z,25.74
2022-10-05T15:44:47.761Z,25.41
2022-10-05T15:47:23.671Z,24.92
2022-10-05T15:50:06.043Z,24.51
2022-10-05T15:52:41.910Z,24.14
2022-10-05T15:55:37.846Z,23.81
2022-10-05T15:58:33.103Z,23.37
2022-10-05T16:01:11.422Z,23.02
2022-10-05T16:03:50.288Z,22.77
2022-10-05T16:06:53.333Z,22.52
2022-10-05T16:09:44.746Z,22.28
2022-10-05T16:12:31.162Z,22.07
2022-10-05T16:15:17.008Z,21.88
2022-10-05T16:18:03.263Z,21.72
2022-10-05T16:20:45.562Z,21.57
2022-10-05T16:23:28.482Z,21.44
2022-10-05T16:26:12.573Z,21.32
2022-10-05T16:28:54.458Z,21.19
2022-10-05T16:31:32.147Z,21.05
2022-10-05T16:34:17.213Z,20.96
2022-10-05T16:37:02.414Z,20.82
2022-10-05T16:39:57.507Z,20.71
2022-10-05T16:42:52.464Z,20.56
2022-10-05T16:45:45.761Z,20.42
2022-10-05T16:48:23.542Z,20.22
2022-10-05T16:51:07.851Z,19.99
2022-10-05T16:53:42.624Z,19.78
2022-10-05T16:56:18.030Z,19.56
2022-10-05T16:59:04.199Z,19.34
2022-10-05T17:01:50.749Z,19.11
2022-10-05T17:04:36.770Z,18.87
2022-10-05T17:07:36.564Z,18.63
2022-10-05T17:10:45.784Z,18.39
2022-10-05T17:13:33.221Z,18.17
2022-10-05T17:16:11.935Z,17.98
2022-10-05T17:19:15.303Z,17.81
2022-10-05T17:21:58.948Z,17.64
2022-10-05T17:24:48.031Z,17.51
2022-10-05T17:27:27.304Z,17.37
2022-10-05T17:30:18.916Z,17.25
2022-10-05T17:32:59.797Z,17.13
2022-10-05T17:35:54.250Z,17.02
2022-10-05T17:38:25.175Z,16.90
2022-10-05T17:41:19.303Z,16.81
2022-10-05T17:44:20.828Z,16.72
2022-10-05T17:46:50.918Z,16.62
2022-10-05T17:49:41.955Z,16.54
2022-10-05T17:52:44.023Z,16.46
2022-10-05T17:55:38.517Z,16.39
2022-10-05T17:59:03.829Z,16.36
2022-10-05T18:01:55.179Z,16.30
2022-10-05T18:04:50.347Z,16.29
2022-10-05T18:07:26.514Z,16.27
2022-10-05T18:10:00.716Z,16.29
2022-10-05T18:12:49.291Z,16.39
2022-10-05T18:15:48.379Z,16.54
2022-10-05T18:18:59.416Z,16.70
2022-10-05T18:21:39.285Z,16.84
2022-10-05T18:24:34.413Z,16.94
2022-10-05T18:27:30.767Z,17.03
2022-10-05T18:30:20.681Z,17.16
2022-10-05T18:33:29.908Z,17.30
2022-10-05T18:36:12.081Z,17.44
2022-10-05T18:38:56.340Z,17.55
2022-10-05T18:41:45.555Z,17.67
2022-10-05T18:44:32.853Z,17.79
2022-10-05T18:47:14.984Z,17.84
2022-10-05T18:49:50.464Z,17.84
2022-10-05T18:52:32.728Z,17.82
2022-10-05T18:55:13.257Z,17.77
2022-10-05T18:58:22.003Z,17.75
2022-10-05T19:01:06.512Z,17.72
2022-10-05T19:03:49.109Z,17.70
2022-10-05T19:06:26.539Z,17.63
2022-10-05T19:09:07.276Z,17.58
2022-10-05T19:11:44.665Z,17.53
2022-10-05T19:14:25.965Z,17.48
2022-10-05T19:17:21.996Z,17.46
2022-10-05T19:20:07.760Z,17.47
2022-10-05T19:22:49.146Z,17.48
2022-10-05T19:25:25.198Z,17.51
2022-10-05T19:28:08.360Z,17.52
2022-10-05T19:30:55.286Z,17.57
2022-10-05T19:33:38.842Z,17.62
2022-10-05T19:36:37.153Z,17.67
2022-10-05T19:39:13.206Z,17.70
2022-10-05T19:42:00.329Z,17.71
2022-10-05T19:44:53.367Z,17.70
2022-10-05T19:47:41.084Z,17.71
2022-10-05T19:50:28.224Z,17.70
2022-10-05T19:53:11.211Z,17.71
2022-10-05T19:55:43.978Z,17.72
2022-10-05T19:58:26.479Z,17.74
2022-10-05T20:01:01.916Z,17.76
2022-10-05T20:03:36.874Z,17.76
2022-10-05T20:06:10.068Z,17.75
2022-10-05T20:08:43.744Z,17.75
2022-10-05T20:11:17.000Z,17.74
2022-10-05T20:14:13.008Z,17.75
2022-10-05T20:17:01.558Z,17.73
2022-10-05T20:19:59.061Z,17.70
2022-10-05T20:22:34.199Z,17.68
2022-10-05T20:25:07.373Z,17.69
2022-10-05T20:27:48.099Z,17.67
2022-10-05T20:30:20.581Z,17.69
2022-10-05T20:32:52.595Z,17.70
2022-10-05T20:35:23.558Z,17.68
2022-10-05T20:37:54.251Z,17.65
2022-10-05T20:40:24.748Z,17.60
2022-10-05T20:42:55.298Z,17.55
2022-10-05T20:45:25.973Z,17.51
2022-10-05T20:47:56.770Z,17.52
2022-10-05T20:50:27.601Z,17.54
2022-10-05T20:52:58.160Z,17.52
2022-10-05T20:55:31.296Z,17.47
2022-10-05T20:58:03.983Z,17.43
2022-10-05T21:00:48.389Z,17.37
2022-10-05T21:03:19.290Z,17.34
2022-10-05T21:05:50.649Z,17.28
2022-10-05T21:08:21.146Z,17.21
2022-10-05T21:10:51.813Z,17.18
2022-10-05T21:13:22.615Z,17.17
2022-10-05T21:15:53.976Z,17.14
2022-10-05T21:18:25.181Z,17.11
2022-10-05T21:20:57.550Z,17.05
2022-10-05T21:23:32.670Z,17.01
2022-10-05T21:26:03.764Z,16.96
2022-10-05T21:28:34.622Z,16.91
2022-10-05T21:31:04.990Z,16.89
2022-10-05T21:33:35.893Z,16.86
2022-10-05T21:36:06.855Z,16.83
2022-10-05T21:38:37.421Z,16.72
2022-10-05T21:41:08.268Z,16.62
2022-10-05T21:43:39.526Z,16.51
2022-10-05T21:46:11.287Z,16.38
2022-10-05T21:48:42.592Z,16.27
2022-10-05T21:51:13.473Z,16.13
2022-10-05T21:53:49.318Z,15.98
2022-10-05T21:56:22.192Z,15.81
2022-10-05T21:58:53.305Z,15.63
2022-10-05T22:01:23.892Z,15.45
2022-10-05T22:03:54.531Z,15.30
2022-10-05T22:06:25.045Z,15.16
2022-10-05T22:08:55.510Z,15.02
2022-10-05T22:11:26.573Z,14.92
2022-10-05T22:14:02.237Z,14.82
2022-10-05T22:16:34.935Z,14.71
2022-10-05T22:19:11.598Z,14.61
2022-10-05T22:21:42.436Z,14.50
2022-10-05T22:24:13.030Z,14.40
2022-10-05T22:26:46.405Z,14.32
2022-10-05T22:29:17.787Z,14.25
2022-10-05T22:31:48.866Z,14.18
2022-10-05T22:34:19.738Z,14.11
2022-10-05T22:36:51.197Z,14.04
2022-10-05T22:39:20.145Z,13.98
2022-10-05T22:41:51.270Z,13.94
2022-10-05T22:44:22.095Z,13.89
2022-10-05T22:46:52.861Z,13.85
2022-10-05T22:49:23.223Z,13.79
2022-10-05T22:51:54.726Z,13.74
2022-10-05T22:54:27.462Z,13.68
2022-10-05T22:57:00.844Z,13.66
2022-10-05T22:59:31.935Z,13.65
2022-10-05T23:02:02.355Z,13.71
2022-10-05T23:04:44.204Z,13.81
2022-10-05T23:07:14.813Z,13.98
2022-10-05T23:09:48.149Z,14.18
2022-10-05T23:12:18.539Z,14.35
2022-10-05T23:14:51.785Z,14.52
2022-10-05T23:17:24.996Z,14.72
2022-10-05T23:19:55.510Z,14.87
2022-10-05T23:22:26.137Z,15.01
2022-10-05T23:24:56.951Z,15.08
2022-10-05T23:27:42.006Z,15.13
2022-10-05T23:30:14.446Z,15.22
2022-10-05T23:32:47.034Z,15.30
2022-10-05T23:35:17.607Z,15.38
2022-10-05T23:37:48.538Z,15.43
2022-10-05T23:40:19.242Z,15.49
2022-10-05T23:42:49.677Z,15.57
2022-10-05T23:45:20.068Z,15.65
2022-10-05T23:47:50.565Z,15.75
2022-10-05T23:50:21.500Z,15.79
2022-10-05T23:53:03.285Z,15.78
2022-10-05T23:55:41.390Z,15.75
2022-10-05T23:58:12.924Z,15.73
